sensor_id;sensor_type;location;lat;lon;timestamp;pressure;altitude;pressure_sealevel;temperature;humidity
7532;BME280;3807;49.030;8.714;2023-05-18T00:00:59;100015.75;;;14.14;55.27
7532;BME280;3807;49.030;8.714;2023-05-18T00:03:27;100009.25;;;14.05;55.17
7532;BME280;3807;49.030;8.714;2023-05-18T00:05:54;100007.03;;;13.96;55.22
7532;BME280;3807;49.030;8.714;2023-05-18T00:08:22;100005.38;;;13.95;55.40
7532;BME280;3807;49.030;8.714;2023-05-18T00:10:47;100007.69;;;14.01;55.12
7532;BME280;3807;49.030;8.714;2023-05-18T00:13:12;100008.06;;;13.90;55.54
7532;BME280;3807;49.030;8.714;2023-05-18T00:15:38;100001.22;;;13.91;55.30
7532;BME280;3807;49.030;8.714;2023-05-18T00:18:03;99996.28;;;13.86;55.26
7532;BME280;3807;49.030;8.714;2023-05-18T00:20:28;99990.31;;;13.86;55.40
7532;BME280;3807;49.030;8.714;2023-05-18T00:22:54;99993.91;;;13.81;55.38
7532;BME280;3807;49.030;8.714;2023-05-18T00:25:19;99981.97;;;13.80;55.38
7532;BME280;3807;49.030;8.714;2023-05-18T00:27:45;99987.09;;;13.80;55.32
7532;BME280;3807;49.030;8.714;2023-05-18T00:30:11;99988.78;;;13.81;55.30
7532;BME280;3807;49.030;8.714;2023-05-18T00:32:36;99994.41;;;13.66;55.40
7532;BME280;3807;49.030;8.714;2023-05-18T00:35:02;99984.75;;;13.74;55.16
7532;BME280;3807;49.030;8.714;2023-05-18T00:37:27;99981.91;;;13.58;55.40
7532;BME280;3807;49.030;8.714;2023-05-18T00:39:52;99981.00;;;13.59;55.59
7532;BME280;3807;49.030;8.714;2023-05-18T00:42:18;99980.97;;;13.61;55.33
7532;BME280;3807;49.030;8.714;2023-05-18T00:44:43;99974.44;;;13.52;55.63
7532;BME280;3807;49.030;8.714;2023-05-18T00:47:08;99973.19;;;13.64;55.23
7532;BME280;3807;49.030;8.714;2023-05-18T00:49:34;99980.13;;;13.61;55.05
7532;BME280;3807;49.030;8.714;2023-05-18T00:51:59;99981.28;;;13.52;55.26
7532;BME280;3807;49.030;8.714;2023-05-18T00:54:25;99980.50;;;13.50;55.27
7532;BME280;3807;49.030;8.714;2023-05-18T00:56:50;99993.50;;;13.44;55.41
7532;BME280;3807;49.030;8.714;2023-05-18T00:59:16;99987.88;;;13.34;55.43
7532;BME280;3807;49.030;8.714;2023-05-18T01:01:42;99986.09;;;13.36;55.51
7532;BME280;3807;49.030;8.714;2023-05-18T01:04:10;99983.59;;;13.34;55.28
7532;BME280;3807;49.030;8.714;2023-05-18T01:06:38;99984.56;;;13.30;55.51
7532;BME280;3807;49.030;8.714;2023-05-18T01:09:06;99984.56;;;13.30;55.22
7532;BME280;3807;49.030;8.714;2023-05-18T01:14:34;99981.91;;;13.33;55.16
7532;BME280;3807;49.030;8.714;2023-05-18T01:17:14;99988.97;;;13.27;55.16
7532;BME280;3807;49.030;8.714;2023-05-18T01:25:49;99986.91;;;13.11;55.92
7532;BME280;3807;49.030;8.714;2023-05-18T01:27:49;99983.50;;;13.11;55.52
7532;BME280;3807;49.030;8.714;2023-05-18T01:30:15;99985.37;;;13.06;55.49
7532;BME280;3807;49.030;8.714;2023-05-18T01:32:44;99976.16;;;13.00;55.75
7532;BME280;3807;49.030;8.714;2023-05-18T01:35:11;99981.53;;;12.93;55.88
7532;BME280;3807;49.030;8.714;2023-05-18T01:37:36;99983.06;;;12.98;55.63
7532;BME280;3807;49.030;8.714;2023-05-18T01:40:03;99982.25;;;12.96;55.51
7532;BME280;3807;49.030;8.714;2023-05-18T01:42:30;99978.78;;;12.99;55.75
7532;BME280;3807;49.030;8.714;2023-05-18T01:45:05;99975.56;;;12.94;55.54
7532;BME280;3807;49.030;8.714;2023-05-18T01:47:32;99973.19;;;12.87;55.69
7532;BME280;3807;49.030;8.714;2023-05-18T01:50:05;99974.94;;;12.85;55.50
7532;BME280;3807;49.030;8.714;2023-05-18T01:55:06;99975.00;;;12.84;55.51
7532;BME280;3807;49.030;8.714;2023-05-18T01:57:35;99974.28;;;12.80;55.51
7532;BME280;3807;49.030;8.714;2023-05-18T02:00:02;99972.59;;;12.79;55.57
7532;BME280;3807;49.030;8.714;2023-05-18T02:02:32;99969.84;;;12.59;55.83
7532;BME280;3807;49.030;8.714;2023-05-18T02:04:57;99968.91;;;12.61;56.17
7532;BME280;3807;49.030;8.714;2023-05-18T02:07:22;99962.94;;;12.61;55.80
7532;BME280;3807;49.030;8.714;2023-05-18T02:09:48;99974.66;;;12.68;55.75
7532;BME280;3807;49.030;8.714;2023-05-18T02:12:13;99977.50;;;12.59;55.83
7532;BME280;3807;49.030;8.714;2023-05-18T02:14:39;99970.94;;;12.50;55.94
7532;BME280;3807;49.030;8.714;2023-05-18T02:17:04;99979.31;;;12.55;55.75
7532;BME280;3807;49.030;8.714;2023-05-18T02:19:31;99968.13;;;12.59;55.39
7532;BME280;3807;49.030;8.714;2023-05-18T02:21:57;99980.75;;;12.64;55.46
7532;BME280;3807;49.030;8.714;2023-05-18T02:24:22;99964.69;;;12.60;55.46
7532;BME280;3807;49.030;8.714;2023-05-18T02:26:49;99966.59;;;12.54;55.46
7532;BME280;3807;49.030;8.714;2023-05-18T02:29:15;99971.75;;;12.52;55.34
7532;BME280;3807;49.030;8.714;2023-05-18T02:31:40;99970.22;;;12.47;55.80
7532;BME280;3807;49.030;8.714;2023-05-18T02:34:06;99963.44;;;12.46;55.53
7532;BME280;3807;49.030;8.714;2023-05-18T02:36:33;99961.63;;;12.49;55.54
7532;BME280;3807;49.030;8.714;2023-05-18T02:39:06;99968.06;;;12.33;55.90
7532;BME280;3807;49.030;8.714;2023-05-18T02:41:32;99958.25;;;12.49;55.77
7532;BME280;3807;49.030;8.714;2023-05-18T02:43:57;99963.63;;;12.39;55.92
7532;BME280;3807;49.030;8.714;2023-05-18T02:46:23;99956.03;;;12.38;55.86
7532;BME280;3807;49.030;8.714;2023-05-18T02:48:48;99955.31;;;12.33;55.82
7532;BME280;3807;49.030;8.714;2023-05-18T02:51:14;99961.56;;;12.23;56.10
7532;BME280;3807;49.030;8.714;2023-05-18T02:53:40;99967.34;;;12.29;56.07
7532;BME280;3807;49.030;8.714;2023-05-18T02:56:08;99953.81;;;12.26;55.95
7532;BME280;3807;49.030;8.714;2023-05-18T02:58:33;99958.28;;;12.19;56.06
7532;BME280;3807;49.030;8.714;2023-05-18T03:01:00;99958.94;;;12.26;56.15
7532;BME280;3807;49.030;8.714;2023-05-18T03:03:27;99955.53;;;12.25;55.88
7532;BME280;3807;49.030;8.714;2023-05-18T03:05:53;99951.50;;;12.18;56.17
7532;BME280;3807;49.030;8.714;2023-05-18T03:08:20;99961.34;;;12.30;55.93
7532;BME280;3807;49.030;8.714;2023-05-18T03:10:47;99956.63;;;12.16;55.97
7532;BME280;3807;49.030;8.714;2023-05-18T03:13:12;99946.75;;;12.06;56.77
7532;BME280;3807;49.030;8.714;2023-05-18T03:15:38;99954.50;;;12.03;56.42
7532;BME280;3807;49.030;8.714;2023-05-18T03:18:05;99948.44;;;12.07;56.12
7532;BME280;3807;49.030;8.714;2023-05-18T03:20:30;99956.97;;;12.06;56.50
7532;BME280;3807;49.030;8.714;2023-05-18T03:22:56;99953.66;;;12.02;56.46
7532;BME280;3807;49.030;8.714;2023-05-18T03:25:21;99959.47;;;12.07;56.28
7532;BME280;3807;49.030;8.714;2023-05-18T03:27:49;99958.66;;;12.07;56.25
7532;BME280;3807;49.030;8.714;2023-05-18T03:30:15;99953.06;;;11.94;56.77
7532;BME280;3807;49.030;8.714;2023-05-18T03:32:40;99951.09;;;12.02;56.14
7532;BME280;3807;49.030;8.714;2023-05-18T03:35:06;99958.59;;;12.08;56.27
7532;BME280;3807;49.030;8.714;2023-05-18T03:37:32;99959.12;;;11.90;56.67
7532;BME280;3807;49.030;8.714;2023-05-18T03:39:59;99952.75;;;12.05;56.30
7532;BME280;3807;49.030;8.714;2023-05-18T03:42:32;99955.28;;;12.05;56.10
7532;BME280;3807;49.030;8.714;2023-05-18T03:44:57;99953.97;;;11.91;56.52
7532;BME280;3807;49.030;8.714;2023-05-18T03:47:22;99961.53;;;11.95;56.52
7532;BME280;3807;49.030;8.714;2023-05-18T03:49:48;99960.47;;;12.02;55.96
7532;BME280;3807;49.030;8.714;2023-05-18T03:52:13;99964.84;;;11.98;56.34
7532;BME280;3807;49.030;8.714;2023-05-18T03:54:39;99962.56;;;11.89;56.59
7532;BME280;3807;49.030;8.714;2023-05-18T03:57:06;99964.06;;;11.96;55.90
7532;BME280;3807;49.030;8.714;2023-05-18T03:59:32;99969.34;;;11.90;56.32
7532;BME280;3807;49.030;8.714;2023-05-18T04:01:57;99976.16;;;11.89;56.44
7532;BME280;3807;49.030;8.714;2023-05-18T04:04:22;99978.13;;;11.78;56.63
7532;BME280;3807;49.030;8.714;2023-05-18T04:06:51;99980.97;;;11.67;56.77
7532;BME280;3807;49.030;8.714;2023-05-18T04:09:17;99982.41;;;11.78;56.63
7532;BME280;3807;49.030;8.714;2023-05-18T04:11:43;99986.97;;;11.66;56.99
7532;BME280;3807;49.030;8.714;2023-05-18T04:14:10;99975.78;;;11.72;56.78
7532;BME280;3807;49.030;8.714;2023-05-18T04:16:35;99991.25;;;11.66;56.76
7532;BME280;3807;49.030;8.714;2023-05-18T04:19:00;99991.41;;;11.60;56.83
7532;BME280;3807;49.030;8.714;2023-05-18T04:21:28;99993.16;;;11.58;57.09
7532;BME280;3807;49.030;8.714;2023-05-18T04:24:00;99995.34;;;11.72;56.56
7532;BME280;3807;49.030;8.714;2023-05-18T04:26:30;99995.53;;;11.64;56.73
7532;BME280;3807;49.030;8.714;2023-05-18T04:28:56;99999.97;;;11.57;56.81
7532;BME280;3807;49.030;8.714;2023-05-18T04:31:25;99998.97;;;11.63;56.84
7532;BME280;3807;49.030;8.714;2023-05-18T04:33:51;100006.97;;;11.51;56.94
7532;BME280;3807;49.030;8.714;2023-05-18T04:36:17;100000.16;;;11.50;57.00
7532;BME280;3807;49.030;8.714;2023-05-18T04:38:44;100000.06;;;11.54;56.88
7532;BME280;3807;49.030;8.714;2023-05-18T04:41:10;100009.63;;;11.46;57.00
7532;BME280;3807;49.030;8.714;2023-05-18T04:43:35;100002.78;;;11.48;57.02
7532;BME280;3807;49.030;8.714;2023-05-18T04:46:01;100008.22;;;11.67;56.45
7532;BME280;3807;49.030;8.714;2023-05-18T04:48:26;100013.66;;;11.55;56.65
7532;BME280;3807;49.030;8.714;2023-05-18T04:50:53;100010.16;;;11.57;56.56
7532;BME280;3807;49.030;8.714;2023-05-18T04:53:20;100018.75;;;11.55;56.68
7532;BME280;3807;49.030;8.714;2023-05-18T04:55:49;100011.19;;;11.52;56.87
7532;BME280;3807;49.030;8.714;2023-05-18T04:58:15;100009.34;;;11.57;56.65
7532;BME280;3807;49.030;8.714;2023-05-18T05:00:41;100008.56;;;11.55;56.55
7532;BME280;3807;49.030;8.714;2023-05-18T05:03:07;100010.34;;;11.51;56.97
7532;BME280;3807;49.030;8.714;2023-05-18T05:05:32;100013.87;;;11.47;56.98
7532;BME280;3807;49.030;8.714;2023-05-18T05:07:58;100022.50;;;11.41;56.97
7532;BME280;3807;49.030;8.714;2023-05-18T05:10:23;100017.72;;;11.62;56.53
7532;BME280;3807;49.030;8.714;2023-05-18T05:12:49;100021.31;;;11.55;56.88
7532;BME280;3807;49.030;8.714;2023-05-18T05:15:15;100011.81;;;11.60;56.55
7532;BME280;3807;49.030;8.714;2023-05-18T05:17:40;100012.72;;;11.57;56.53
7532;BME280;3807;49.030;8.714;2023-05-18T05:20:06;100018.56;;;11.30;57.02
7532;BME280;3807;49.030;8.714;2023-05-18T05:22:32;100019.97;;;11.40;57.25
7532;BME280;3807;49.030;8.714;2023-05-18T05:24:57;100013.19;;;11.40;57.31
7532;BME280;3807;49.030;8.714;2023-05-18T05:27:22;100015.72;;;11.40;57.05
7532;BME280;3807;49.030;8.714;2023-05-18T05:29:50;100022.75;;;11.63;56.52
7532;BME280;3807;49.030;8.714;2023-05-18T05:32:15;100023.09;;;11.51;57.01
7532;BME280;3807;49.030;8.714;2023-05-18T05:34:41;100019.44;;;11.61;56.74
7532;BME280;3807;49.030;8.714;2023-05-18T05:37:11;100026.16;;;11.64;56.71
7532;BME280;3807;49.030;8.714;2023-05-18T05:39:37;100029.25;;;11.44;57.17
7532;BME280;3807;49.030;8.714;2023-05-18T05:42:02;100021.88;;;11.64;56.53
7532;BME280;3807;49.030;8.714;2023-05-18T05:44:27;100025.91;;;11.73;56.14
7532;BME280;3807;49.030;8.714;2023-05-18T05:46:53;100021.03;;;11.65;56.55
7532;BME280;3807;49.030;8.714;2023-05-18T05:49:18;100028.38;;;11.76;56.36
7532;BME280;3807;49.030;8.714;2023-05-18T05:51:43;100027.88;;;11.63;56.61
7532;BME280;3807;49.030;8.714;2023-05-18T05:54:09;100030.25;;;11.69;56.44
7532;BME280;3807;49.030;8.714;2023-05-18T05:56:34;100024.44;;;11.64;56.86
7532;BME280;3807;49.030;8.714;2023-05-18T05:59:00;100031.44;;;11.58;56.81
7532;BME280;3807;49.030;8.714;2023-05-18T06:01:25;100030.41;;;11.65;56.79
7532;BME280;3807;49.030;8.714;2023-05-18T06:03:51;100032.19;;;11.61;56.79
7532;BME280;3807;49.030;8.714;2023-05-18T06:06:17;100033.94;;;11.59;56.73
7532;BME280;3807;49.030;8.714;2023-05-18T06:08:42;100027.09;;;11.61;56.82
7532;BME280;3807;49.030;8.714;2023-05-18T06:11:07;100031.62;;;11.50;57.06
7532;BME280;3807;49.030;8.714;2023-05-18T06:13:33;100036.75;;;11.49;57.22
7532;BME280;3807;49.030;8.714;2023-05-18T06:15:58;100027.09;;;11.61;56.79
7532;BME280;3807;49.030;8.714;2023-05-18T06:18:23;100034.00;;;11.56;57.06
7532;BME280;3807;49.030;8.714;2023-05-18T06:20:49;100027.13;;;11.60;57.08
7532;BME280;3807;49.030;8.714;2023-05-18T06:23:15;100036.19;;;11.70;56.92
7532;BME280;3807;49.030;8.714;2023-05-18T06:25:46;100036.19;;;11.72;56.79
7532;BME280;3807;49.030;8.714;2023-05-18T06:28:11;100036.25;;;11.68;56.93
7532;BME280;3807;49.030;8.714;2023-05-18T06:30:37;100042.88;;;11.76;56.75
7532;BME280;3807;49.030;8.714;2023-05-18T06:33:02;100038.00;;;11.66;56.83
7532;BME280;3807;49.030;8.714;2023-05-18T06:35:28;100043.06;;;11.68;56.89
7532;BME280;3807;49.030;8.714;2023-05-18T06:37:53;100037.00;;;11.72;56.92
7532;BME280;3807;49.030;8.714;2023-05-18T06:40:19;100040.19;;;11.80;56.60
7532;BME280;3807;49.030;8.714;2023-05-18T06:42:44;100041.31;;;11.70;56.67
7532;BME280;3807;49.030;8.714;2023-05-18T06:45:10;100044.28;;;11.53;57.68
7532;BME280;3807;49.030;8.714;2023-05-18T06:47:36;100032.28;;;11.58;57.49
7532;BME280;3807;49.030;8.714;2023-05-18T06:50:02;100040.41;;;11.73;57.25
7532;BME280;3807;49.030;8.714;2023-05-18T06:52:28;100038.88;;;11.65;57.32
7532;BME280;3807;49.030;8.714;2023-05-18T06:54:53;100038.62;;;11.75;57.25
7532;BME280;3807;49.030;8.714;2023-05-18T06:57:19;100035.81;;;11.85;56.83
7532;BME280;3807;49.030;8.714;2023-05-18T06:59:45;100031.94;;;12.03;56.43
7532;BME280;3807;49.030;8.714;2023-05-18T07:02:10;100036.63;;;11.87;56.72
7532;BME280;3807;49.030;8.714;2023-05-18T07:04:36;100029.00;;;11.86;57.00
7532;BME280;3807;49.030;8.714;2023-05-18T07:07:01;100046.00;;;11.87;57.48
7532;BME280;3807;49.030;8.714;2023-05-18T07:09:27;100039.72;;;11.99;57.00
7532;BME280;3807;49.030;8.714;2023-05-18T07:11:52;100039.91;;;11.91;57.30
7532;BME280;3807;49.030;8.714;2023-05-18T07:14:18;100042.03;;;12.06;57.12
7532;BME280;3807;49.030;8.714;2023-05-18T07:16:43;100041.28;;;12.03;57.11
7532;BME280;3807;49.030;8.714;2023-05-18T07:19:11;100042.91;;;12.07;57.26
7532;BME280;3807;49.030;8.714;2023-05-18T07:21:36;100035.78;;;12.18;57.10
7532;BME280;3807;49.030;8.714;2023-05-18T07:24:02;100040.03;;;12.18;56.86
7532;BME280;3807;49.030;8.714;2023-05-18T07:26:27;100036.53;;;12.22;57.01
7532;BME280;3807;49.030;8.714;2023-05-18T07:28:53;100040.34;;;12.36;56.53
7532;BME280;3807;49.030;8.714;2023-05-18T07:31:19;100033.87;;;12.25;56.73
7532;BME280;3807;49.030;8.714;2023-05-18T07:33:46;100033.41;;;12.42;56.46
7532;BME280;3807;49.030;8.714;2023-05-18T07:36:12;100032.12;;;12.55;56.74
7532;BME280;3807;49.030;8.714;2023-05-18T07:38:38;100036.38;;;12.56;56.34
7532;BME280;3807;49.030;8.714;2023-05-18T07:41:04;100034.22;;;12.42;56.91
7532;BME280;3807;49.030;8.714;2023-05-18T07:43:29;100038.84;;;12.59;55.78
7532;BME280;3807;49.030;8.714;2023-05-18T07:45:55;100038.44;;;12.71;55.95
7532;BME280;3807;49.030;8.714;2023-05-18T07:48:20;100038.62;;;12.65;56.19
7532;BME280;3807;49.030;8.714;2023-05-18T07:50:46;100030.00;;;12.69;55.91
7532;BME280;3807;49.030;8.714;2023-05-18T07:53:11;100036.69;;;12.73;56.45
7532;BME280;3807;49.030;8.714;2023-05-18T07:55:36;100035.25;;;12.64;56.18
7532;BME280;3807;49.030;8.714;2023-05-18T07:58:02;100039.72;;;13.64;54.49
7532;BME280;3807;49.030;8.714;2023-05-18T08:00:27;100032.53;;;14.68;51.53
7532;BME280;3807;49.030;8.714;2023-05-18T08:02:53;100032.12;;;14.79;52.55
7532;BME280;3807;49.030;8.714;2023-05-18T08:05:19;100034.63;;;14.58;52.87
7532;BME280;3807;49.030;8.714;2023-05-18T08:07:46;100040.91;;;15.56;50.77
7532;BME280;3807;49.030;8.714;2023-05-18T08:10:12;100031.69;;;15.32;50.80
7532;BME280;3807;49.030;8.714;2023-05-18T08:12:37;100022.88;;;14.96;51.54
7532;BME280;3807;49.030;8.714;2023-05-18T08:15:03;100025.19;;;15.23;51.67
7532;BME280;3807;49.030;8.714;2023-05-18T08:17:28;100027.75;;;15.64;51.13
7532;BME280;3807;49.030;8.714;2023-05-18T08:19:54;100027.41;;;15.73;50.80
7532;BME280;3807;49.030;8.714;2023-05-18T08:22:19;100029.16;;;15.51;51.32
7532;BME280;3807;49.030;8.714;2023-05-18T08:24:45;100027.28;;;15.95;50.32
7532;BME280;3807;49.030;8.714;2023-05-18T08:27:11;100031.38;;;15.99;50.15
7532;BME280;3807;49.030;8.714;2023-05-18T08:29:36;100023.31;;;16.07;50.16
7532;BME280;3807;49.030;8.714;2023-05-18T08:32:04;100021.78;;;15.84;50.63
7532;BME280;3807;49.030;8.714;2023-05-18T08:34:30;100010.97;;;16.15;49.99
7532;BME280;3807;49.030;8.714;2023-05-18T08:36:56;100015.00;;;16.02;50.36
7532;BME280;3807;49.030;8.714;2023-05-18T08:39:21;100005.34;;;16.07;50.22
7532;BME280;3807;49.030;8.714;2023-05-18T08:42:06;100012.25;;;15.86;50.78
7532;BME280;3807;49.030;8.714;2023-05-18T08:47:28;100003.75;;;16.04;49.62
7532;BME280;3807;49.030;8.714;2023-05-18T08:49:55;100000.41;;;16.40;49.79
7532;BME280;3807;49.030;8.714;2023-05-18T08:52:24;100000.00;;;16.30;50.00
7532;BME280;3807;49.030;8.714;2023-05-18T08:54:53;100000.19;;;16.44;49.63
7532;BME280;3807;49.030;8.714;2023-05-18T08:57:21;99994.53;;;16.55;49.38
7532;BME280;3807;49.030;8.714;2023-05-18T08:59:48;99993.13;;;16.67;49.08
7532;BME280;3807;49.030;8.714;2023-05-18T09:02:16;99992.09;;;16.52;49.08
7532;BME280;3807;49.030;8.714;2023-05-18T09:04:42;99987.78;;;16.35;50.16
7532;BME280;3807;49.030;8.714;2023-05-18T09:07:09;99984.38;;;16.16;50.04
7532;BME280;3807;49.030;8.714;2023-05-18T09:09:35;99989.00;;;16.63;49.57
7532;BME280;3807;49.030;8.714;2023-05-18T09:12:00;99982.12;;;16.46;49.72
7532;BME280;3807;49.030;8.714;2023-05-18T09:14:26;99984.34;;;16.35;48.56
7532;BME280;3807;49.030;8.714;2023-05-18T09:16:52;99988.00;;;16.67;49.24
7532;BME280;3807;49.030;8.714;2023-05-18T09:19:18;99982.97;;;16.83;49.15
7532;BME280;3807;49.030;8.714;2023-05-18T09:21:43;99984.00;;;16.79;47.95
7532;BME280;3807;49.030;8.714;2023-05-18T09:24:08;99980.38;;;17.00;48.69
7532;BME280;3807;49.030;8.714;2023-05-18T09:26:36;99977.38;;;17.09;48.50
7532;BME280;3807;49.030;8.714;2023-05-18T09:29:14;99982.97;;;17.00;48.64
7532;BME280;3807;49.030;8.714;2023-05-18T09:31:40;99986.16;;;17.23;48.20
7532;BME280;3807;49.030;8.714;2023-05-18T09:34:05;99984.94;;;17.12;47.43
7532;BME280;3807;49.030;8.714;2023-05-18T09:36:31;99988.88;;;16.85;49.08
7532;BME280;3807;49.030;8.714;2023-05-18T09:38:58;99982.97;;;17.00;48.83
7532;BME280;3807;49.030;8.714;2023-05-18T09:41:25;99976.06;;;16.83;49.20
7532;BME280;3807;49.030;8.714;2023-05-18T09:43:51;99986.31;;;17.20;48.61
7532;BME280;3807;49.030;8.714;2023-05-18T09:46:17;99979.00;;;17.45;48.01
7532;BME280;3807;49.030;8.714;2023-05-18T09:48:45;99972.59;;;17.19;48.64
7532;BME280;3807;49.030;8.714;2023-05-18T09:51:12;99975.34;;;17.49;47.78
7532;BME280;3807;49.030;8.714;2023-05-18T09:53:41;99973.91;;;17.61;46.69
7532;BME280;3807;49.030;8.714;2023-05-18T09:56:06;99975.97;;;17.70;47.04
7532;BME280;3807;49.030;8.714;2023-05-18T09:58:36;99965.16;;;17.63;46.85
7532;BME280;3807;49.030;8.714;2023-05-18T10:01:02;99964.63;;;18.06;46.31
7532;BME280;3807;49.030;8.714;2023-05-18T10:03:33;99962.94;;;17.73;47.29
7532;BME280;3807;49.030;8.714;2023-05-18T10:06:07;99961.25;;;17.90;46.45
7532;BME280;3807;49.030;8.714;2023-05-18T10:08:33;99964.34;;;17.96;46.60
7532;BME280;3807;49.030;8.714;2023-05-18T10:10:59;99961.13;;;17.42;45.38
7532;BME280;3807;49.030;8.714;2023-05-18T10:13:26;99964.63;;;18.06;46.16
7532;BME280;3807;49.030;8.714;2023-05-18T10:15:54;99953.94;;;17.98;44.87
7532;BME280;3807;49.030;8.714;2023-05-18T10:18:25;99956.66;;;17.95;46.17
7532;BME280;3807;49.030;8.714;2023-05-18T10:20:52;99952.63;;;18.06;44.78
7532;BME280;3807;49.030;8.714;2023-05-18T10:23:19;99962.63;;;18.43;45.07
7532;BME280;3807;49.030;8.714;2023-05-18T10:25:46;99963.31;;;18.46;45.44
7532;BME280;3807;49.030;8.714;2023-05-18T10:28:16;99960.63;;;18.48;44.78
7532;BME280;3807;49.030;8.714;2023-05-18T10:30:44;99959.84;;;18.77;44.17
7532;BME280;3807;49.030;8.714;2023-05-18T10:33:10;99957.31;;;18.92;43.67
7532;BME280;3807;49.030;8.714;2023-05-18T10:35:37;99958.44;;;18.72;43.72
7532;BME280;3807;49.030;8.714;2023-05-18T10:38:04;99961.66;;;18.91;43.99
7532;BME280;3807;49.030;8.714;2023-05-18T10:40:29;99961.66;;;19.06;43.10
7532;BME280;3807;49.030;8.714;2023-05-18T10:42:56;99957.06;;;19.11;42.90
7532;BME280;3807;49.030;8.714;2023-05-18T10:45:23;99950.75;;;18.86;41.98
7532;BME280;3807;49.030;8.714;2023-05-18T10:47:49;99962.16;;;19.26;43.34
7532;BME280;3807;49.030;8.714;2023-05-18T10:50:20;99951.72;;;19.28;42.28
7532;BME280;3807;49.030;8.714;2023-05-18T10:52:47;99950.72;;;19.45;42.31
7532;BME280;3807;49.030;8.714;2023-05-18T10:55:13;99944.19;;;19.25;43.43
7532;BME280;3807;49.030;8.714;2023-05-18T10:57:48;99952.47;;;19.59;42.79
7532;BME280;3807;49.030;8.714;2023-05-18T11:00:15;99959.78;;;19.66;42.62
7532;BME280;3807;49.030;8.714;2023-05-18T11:02:41;99948.16;;;19.45;42.88
7532;BME280;3807;49.030;8.714;2023-05-18T11:05:08;99938.47;;;19.63;42.78
7532;BME280;3807;49.030;8.714;2023-05-18T11:07:34;99947.53;;;19.84;42.91
7532;BME280;3807;49.030;8.714;2023-05-18T11:10:03;99928.19;;;19.90;42.20
7532;BME280;3807;49.030;8.714;2023-05-18T11:12:31;99922.31;;;19.88;42.10
7532;BME280;3807;49.030;8.714;2023-05-18T11:14:58;99927.75;;;19.83;42.15
7532;BME280;3807;49.030;8.714;2023-05-18T11:17:24;99927.38;;;19.89;41.19
7532;BME280;3807;49.030;8.714;2023-05-18T11:23:01;99930.47;;;20.09;41.10
7532;BME280;3807;49.030;8.714;2023-05-18T11:27:55;99912.72;;;20.17;41.30
7532;BME280;3807;49.030;8.714;2023-05-18T11:30:28;99921.88;;;20.35;41.10
7532;BME280;3807;49.030;8.714;2023-05-18T11:36:01;99915.34;;;20.30;41.49
7532;BME280;3807;49.030;8.714;2023-05-18T11:38:46;99918.97;;;20.54;38.54
7532;BME280;3807;49.030;8.714;2023-05-18T11:44:16;99910.81;;;20.73;39.87
7532;BME280;3807;49.030;8.714;2023-05-18T11:49:24;99908.97;;;21.01;40.19
7532;BME280;3807;49.030;8.714;2023-05-18T11:52:05;99906.50;;;20.99;39.58
7532;BME280;3807;49.030;8.714;2023-05-18T11:57:03;99905.91;;;21.34;38.03
7532;BME280;3807;49.030;8.714;2023-05-18T11:59:33;99904.09;;;21.09;39.04
7532;BME280;3807;49.030;8.714;2023-05-18T12:02:00;99903.47;;;21.05;37.01
7532;BME280;3807;49.030;8.714;2023-05-18T12:04:26;99909.19;;;20.98;38.51
7532;BME280;3807;49.030;8.714;2023-05-18T12:06:52;99894.34;;;21.25;38.88
7532;BME280;3807;49.030;8.714;2023-05-18T12:09:19;99907.41;;;21.36;39.30
7532;BME280;3807;49.030;8.714;2023-05-18T12:11:44;99909.28;;;21.47;37.90
7532;BME280;3807;49.030;8.714;2023-05-18T12:14:10;99898.47;;;21.66;37.80
7532;BME280;3807;49.030;8.714;2023-05-18T12:16:38;99889.59;;;21.81;36.99
7532;BME280;3807;49.030;8.714;2023-05-18T12:19:05;99891.19;;;21.71;37.43
7532;BME280;3807;49.030;8.714;2023-05-18T12:21:34;99890.38;;;21.58;37.70
7532;BME280;3807;49.030;8.714;2023-05-18T12:24:00;99895.41;;;21.72;37.57
7532;BME280;3807;49.030;8.714;2023-05-18T12:26:25;99887.19;;;21.91;37.32
7532;BME280;3807;49.030;8.714;2023-05-18T12:28:53;99886.87;;;22.20;36.33
7532;BME280;3807;49.030;8.714;2023-05-18T12:31:19;99878.16;;;21.97;36.01
7532;BME280;3807;49.030;8.714;2023-05-18T12:33:45;99881.00;;;22.05;37.13
7532;BME280;3807;49.030;8.714;2023-05-18T12:36:12;99882.44;;;22.33;37.59
7532;BME280;3807;49.030;8.714;2023-05-18T12:38:37;99890.00;;;22.36;36.97
7532;BME280;3807;49.030;8.714;2023-05-18T12:41:03;99885.06;;;22.44;35.13
7532;BME280;3807;49.030;8.714;2023-05-18T12:43:32;99876.91;;;22.38;36.23
7532;BME280;3807;49.030;8.714;2023-05-18T12:46:00;99886.59;;;22.35;36.39
7532;BME280;3807;49.030;8.714;2023-05-18T12:48:26;99882.72;;;22.52;36.71
7532;BME280;3807;49.030;8.714;2023-05-18T12:50:51;99880.41;;;22.61;35.96
7532;BME280;3807;49.030;8.714;2023-05-18T12:53:17;99878.84;;;22.58;36.42
7532;BME280;3807;49.030;8.714;2023-05-18T12:55:42;99880.66;;;22.80;36.94
7532;BME280;3807;49.030;8.714;2023-05-18T12:58:12;99870.81;;;22.96;36.14
7532;BME280;3807;49.030;8.714;2023-05-18T13:00:43;99868.88;;;22.87;34.68
7532;BME280;3807;49.030;8.714;2023-05-18T13:03:11;99860.41;;;23.08;36.36
7532;BME280;3807;49.030;8.714;2023-05-18T13:05:38;99862.06;;;22.97;36.28
7532;BME280;3807;49.030;8.714;2023-05-18T13:08:05;99864.78;;;23.07;36.02
7532;BME280;3807;49.030;8.714;2023-05-18T13:10:31;99863.16;;;23.06;36.49
7532;BME280;3807;49.030;8.714;2023-05-18T13:12:56;99868.34;;;23.17;36.33
7532;BME280;3807;49.030;8.714;2023-05-18T13:15:34;99870.59;;;22.99;36.93
7532;BME280;3807;49.030;8.714;2023-05-18T13:20:42;99858.53;;;23.21;36.83
7532;BME280;3807;49.030;8.714;2023-05-18T13:23:12;99850.63;;;23.00;37.27
7532;BME280;3807;49.030;8.714;2023-05-18T13:25:41;99856.53;;;23.13;35.39
7532;BME280;3807;49.030;8.714;2023-05-18T13:28:07;99847.78;;;23.25;36.43
7532;BME280;3807;49.030;8.714;2023-05-18T13:30:35;99842.94;;;23.21;37.21
7532;BME280;3807;49.030;8.714;2023-05-18T13:33:00;99842.13;;;23.20;36.71
7532;BME280;3807;49.030;8.714;2023-05-18T13:35:26;99850.63;;;23.22;36.21
7532;BME280;3807;49.030;8.714;2023-05-18T13:37:51;99841.37;;;23.52;36.16
7532;BME280;3807;49.030;8.714;2023-05-18T13:40:19;99847.63;;;23.72;35.51
7532;BME280;3807;49.030;8.714;2023-05-18T13:42:45;99853.31;;;23.98;35.30
7532;BME280;3807;49.030;8.714;2023-05-18T13:45:11;99849.37;;;23.83;35.30
7532;BME280;3807;49.030;8.714;2023-05-18T13:47:38;99839.50;;;23.97;35.23